Time;durP1;ratioP1;P1;durP2;ratioP2;P2;SDS_P1;SDS_P2;PMS_P1;PMS_P2;Temp;Humidity;BMP_temperature;BMP_pressure;BME280_temperature;BME280_humidity;BME280_pressure;Samples;Min_cycle;Max_cycle;Signal;HPM_P1;HPM_P2
2023/01/21 07:43:40;;;;;;;;;;;;;;;0.60;51.00;97061.66;4238513;27;11228;-64
2023/01/21 07:45:43;;;;;;;;;;;;;;;0.91;50.66;97063.41;4241323;27;5672;-64
2023/01/21 07:47:46;;;;;;;;;;;;;;;1.14;50.43;97053.69;4238931;27;5759;-65
2023/01/21 07:49:49;;;;;;;;;;;;;;;1.34;50.24;97059.78;4239018;27;5799;-64
2023/01/21 07:51:56;;;;;;;;;;;;;;;1.49;49.98;97045.50;4239013;27;5891;-64
2023/01/21 07:53:59;;;;;;;;;;;;;;;1.64;49.91;97051.16;4239307;27;5681;-65
2023/01/21 07:56:03;;;;;;;;;;;;;;;1.74;49.79;97054.63;4230517;28;5850;-64
2023/01/21 07:58:06;;;;;;;;;;;;;;;1.85;49.68;97064.16;4235924;27;5705;-65
2023/01/21 08:00:12;;;;;;;;;;;;;;;1.94;49.58;97052.94;4238735;27;5700;-64
2023/01/21 08:02:15;;;;;;;;;;;;;;;2.01;49.49;97046.19;4238803;27;5605;-64
2023/01/21 08:04:17;;;;;;;;;;;;;;;2.06;49.45;97044.03;4238774;27;5688;-64
2023/01/21 08:06:20;;;;;;;;;;;;;;;2.11;49.41;97057.47;4238859;27;5598;-64
2023/01/21 08:08:23;;;;;;;;;;;;;;;2.17;49.51;97045.69;4238325;27;5590;-65
2023/01/21 08:10:26;;;;;;;;;;;;;;;2.21;49.34;97047.91;4238818;27;5641;-64
2023/01/21 08:12:29;;;;;;;;;;;;;;;2.25;49.29;97058.88;4238653;27;5591;-63
2023/01/21 08:14:32;;;;;;;;;;;;;;;2.27;49.24;97047.38;4243766;27;5685;-63
2023/01/21 08:16:36;;;;;;;;;;;;;;;2.30;49.22;97059.31;4238568;27;5075;-63
2023/01/21 08:18:38;;;;;;;;;;;;;;;2.33;49.08;97056.41;4230480;27;8366;-64
2023/01/21 08:20:42;;;;;;;;;;;;;;;2.37;49.04;97054.34;4238318;27;5620;-64
2023/01/21 08:22:44;;;;;;;;;;;;;;;2.40;49.05;97049.72;4238249;27;5692;-63
2023/01/21 08:24:47;;;;;;;;;;;;;;;2.43;49.07;97053.84;4243632;27;5689;-63
2023/01/21 08:26:50;;;;;;;;;;;;;;;2.45;49.02;97051.91;4233908;27;5604;-64
2023/01/21 08:28:53;;;;;;;;;;;;;;;2.48;48.98;97056.84;4234540;27;5809;-64
2023/01/21 08:31:03;;;;;;;;;;;;;;;2.52;48.95;97050.41;4237005;27;6433;-64
2023/01/21 08:33:07;;;;;;;;;;;;;;;2.56;48.92;97047.38;4238043;27;5517;-64
2023/01/21 08:35:10;;;;;;;;;;;;;;;2.60;48.73;97046.16;4235153;27;5856;-64
2023/01/21 08:37:13;;;;;;;;;;;;;;;2.61;48.76;97039.97;4243504;27;5594;-63
2023/01/21 08:39:15;;;;;;;;;;;;;;;2.62;48.64;97046.84;4235441;27;5975;-64
2023/01/21 08:41:18;;;;;;;;;;;;;;;2.63;48.74;97047.66;4238387;27;5819;-64
2023/01/21 08:43:21;;;;;;;;;;;;;;;2.66;48.64;97043.94;4233209;27;5853;-64
2023/01/21 08:45:23;;;;;;;;;;;;;;;2.68;48.57;97050.69;4226541;28;5673;-63
2023/01/21 08:47:26;;;;;;;;;;;;;;;2.69;48.52;97054.94;4226654;28;6480;-64
2023/01/21 08:49:30;;;;;;;;;;;;;;;2.70;48.47;97051.34;4226503;28;5759;-63
2023/01/21 08:51:34;;;;;;;;;;;;;;;2.74;48.12;97044.91;4221487;28;5720;-64
2023/01/21 08:53:36;;;;;;;;;;;;;;;2.70;48.03;97048.75;4219074;28;5764;-64
2023/01/21 08:55:39;;;;;;;;;;;;;;;2.67;48.00;97043.81;4232165;28;5084;-64
2023/01/21 08:57:42;;;;;;;;;;;;;;;2.68;48.16;97035.00;4226552;28;7659;-64
2023/01/21 08:59:44;;;;;;;;;;;;;;;2.67;48.09;97035.97;4226493;28;5786;-64
2023/01/21 09:01:47;;;;;;;;;;;;;;;2.60;47.84;97037.47;4228639;28;5696;-64
2023/01/21 09:03:54;;;;;;;;;;;;;;;2.58;47.85;97042.84;4226106;28;5657;-64
2023/01/21 09:06:01;;;;;;;;;;;;;;;2.54;48.02;97031.03;4226898;28;6465;-64
2023/01/21 09:08:04;;;;;;;;;;;;;;;2.46;47.92;97030.06;4226567;28;5693;-64
2023/01/21 09:10:08;;;;;;;;;;;;;;;2.45;47.99;97023.19;4226253;28;5961;-64
2023/01/21 09:12:11;;;;;;;;;;;;;;;2.37;47.93;97020.44;4229393;28;5755;-64
2023/01/21 09:14:14;;;;;;;;;;;;;;;2.32;47.76;97024.28;4226516;28;5846;-64
2023/01/21 09:16:20;;;;;;;;;;;;;;;2.28;47.84;97027.31;4224500;28;5748;-64
2023/01/21 09:18:23;;;;;;;;;;;;;;;2.32;47.82;97019.06;4229858;28;5715;-64
2023/01/21 09:20:26;;;;;;;;;;;;;;;2.37;47.80;97025.66;4225452;28;5668;-64
2023/01/21 09:22:30;;;;;;;;;;;;;;;2.28;47.62;97024.72;4228756;28;6305;-64
2023/01/21 09:24:33;;;;;;;;;;;;;;;2.35;47.56;97041.44;4224474;28;5773;-64
2023/01/21 09:26:35;;;;;;;;;;;;;;;2.40;47.57;97026.22;4226218;28;5606;-64
2023/01/21 09:28:41;;;;;;;;;;;;;;;2.33;47.13;97036.38;4226489;28;5609;-64
2023/01/21 09:30:44;;;;;;;;;;;;;;;2.26;47.38;97030.03;4225669;28;5764;-64
2023/01/21 09:32:46;;;;;;;;;;;;;;;2.30;47.41;97044.47;4230791;27;5765;-65
2023/01/21 09:34:49;;;;;;;;;;;;;;;2.21;47.40;97034.03;4230040;28;6473;-64
2023/01/21 09:36:52;;;;;;;;;;;;;;;2.27;47.39;97031.72;4226313;28;5769;-64
2023/01/21 09:38:56;;;;;;;;;;;;;;;2.38;47.45;97027.31;4226242;28;5639;-64
2023/01/21 09:41:05;;;;;;;;;;;;;;;2.42;47.22;97028.69;4230226;28;6341;-64
2023/01/21 09:43:15;;;;;;;;;;;;;;;2.50;47.13;97028.84;4226012;28;5586;-64
2023/01/21 09:45:20;;;;;;;;;;;;;;;2.51;47.10;97025.28;4225411;28;5597;-64
2023/01/21 09:47:24;;;;;;;;;;;;;;;2.55;46.65;97039.69;4229890;28;5705;-64
2023/01/21 09:49:30;;;;;;;;;;;;;;;2.50;46.71;97023.63;4223548;28;6003;-64
2023/01/21 09:51:41;;;;;;;;;;;;;;;2.45;46.98;97028.41;4222879;27;5710;-64
2023/01/21 09:53:49;;;;;;;;;;;;;;;2.46;46.77;97027.47;4227367;27;5612;-64
2023/01/21 09:55:57;;;;;;;;;;;;;;;2.51;46.86;97031.31;4225402;27;5749;-64
2023/01/21 09:58:15;;;;;;;;;;;;;;;2.55;46.77;97029.25;4225824;27;5752;-64
2023/01/21 10:00:32;;;;;;;;;;;;;;;2.65;46.80;97011.81;4227136;27;5657;-64
2023/01/21 10:02:44;;;;;;;;;;;;;;;2.69;46.70;97021.00;4222630;27;5620;-64
2023/01/21 10:04:55;;;;;;;;;;;;;;;2.75;46.58;97011.78;4225866;27;5612;-64
2023/01/21 10:07:02;;;;;;;;;;;;;;;2.66;46.51;97016.06;4231063;27;5777;-65
2023/01/21 10:09:27;;;;;;;;;;;;;;;2.49;46.71;97003.69;4231418;27;5692;-64
2023/01/21 10:11:47;;;;;;;;;;;;;;;2.54;46.61;97006.72;4221400;27;5614;-64
2023/01/21 10:14:05;;;;;;;;;;;;;;;2.53;46.57;97000.69;4231099;27;5677;-64
2023/01/21 10:16:17;;;;;;;;;;;;;;;2.62;46.08;97012.91;4222381;27;7569;-64
2023/01/21 10:18:24;;;;;;;;;;;;;;;2.63;46.36;96998.06;4228293;27;6286;-65
2023/01/21 10:20:31;;;;;;;;;;;;;;;2.69;46.48;97018.38;4232813;28;5912;-64
2023/01/21 10:22:35;;;;;;;;;;;;;;;2.72;46.30;97007.69;4232527;27;5689;-64
2023/01/21 10:24:44;;;;;;;;;;;;;;;2.74;46.25;96999.72;4230402;27;5716;-64
2023/01/21 10:26:52;;;;;;;;;;;;;;;2.81;46.23;97012.03;4225446;27;5624;-65
2023/01/21 10:28:55;;;;;;;;;;;;;;;2.88;46.12;97004.50;4224248;27;5717;-66
2023/01/21 10:31:02;;;;;;;;;;;;;;;2.90;46.25;96990.31;4231575;27;5111;-68
2023/01/21 10:33:12;;;;;;;;;;;;;;;2.97;45.90;96997.63;4220084;27;5794;-70
2023/01/21 10:35:17;;;;;;;;;;;;;;;2.98;46.08;97017.53;4230454;27;6559;-63
2023/01/21 10:37:32;;;;;;;;;;;;;;;2.77;46.21;96997.63;4228850;27;5720;-62
2023/01/21 10:39:45;;;;;;;;;;;;;;;2.71;46.33;96999.97;4222790;27;6303;-62
2023/01/21 10:42:05;;;;;;;;;;;;;;;2.76;46.26;96990.78;4226588;27;5591;-61
2023/01/21 10:44:15;;;;;;;;;;;;;;;2.80;46.31;96992.13;4228822;28;5689;-63
2023/01/21 10:46:24;;;;;;;;;;;;;;;2.83;46.26;96986.66;4232327;28;5751;-64
2023/01/21 10:48:36;;;;;;;;;;;;;;;2.80;46.29;96986.09;4216145;28;5612;-61
2023/01/21 10:50:48;;;;;;;;;;;;;;;2.85;46.20;96989.13;4216307;28;6414;-60
2023/01/21 10:52:55;;;;;;;;;;;;;;;2.85;46.18;96984.72;4219788;28;5675;-60
2023/01/21 10:55:06;;;;;;;;;;;;;;;2.84;46.21;96985.69;4223390;28;5728;-61
2023/01/21 10:57:21;;;;;;;;;;;;;;;2.75;46.36;96978.69;4217592;28;5668;-59
2023/01/21 10:59:28;;;;;;;;;;;;;;;2.85;46.37;96983.88;4226989;28;5748;-61
2023/01/21 11:01:40;;;;;;;;;;;;;;;2.88;46.25;96984.44;4224374;28;5933;-62
2023/01/21 11:03:45;;;;;;;;;;;;;;;2.91;46.35;96978.09;4224964;28;5668;-61
2023/01/21 11:05:49;;;;;;;;;;;;;;;2.97;46.47;96969.72;4225140;28;5684;-62
2023/01/21 11:07:52;;;;;;;;;;;;;;;3.04;46.36;96978.59;4223863;27;5784;-61
2023/01/21 11:09:55;;;;;;;;;;;;;;;3.04;46.31;96985.63;4226414;27;5677;-60
2023/01/21 11:11:59;;;;;;;;;;;;;;;3.05;46.30;96968.97;4229696;27;5712;-61
2023/01/21 11:14:03;;;;;;;;;;;;;;;3.02;46.46;96966.66;4230067;27;5709;-60
2023/01/21 11:16:07;;;;;;;;;;;;;;;3.07;46.42;96972.28;4221797;27;5747;-60
2023/01/21 11:18:26;;;;;;;;;;;;;;;3.16;46.53;96976.63;4220507;28;5620;-60
2023/01/21 11:20:35;;;;;;;;;;;;;;;3.12;46.33;96965.66;4222298;28;5696;-59
2023/01/21 11:22:44;;;;;;;;;;;;;;;3.12;46.42;96970.06;4223902;28;5672;-59
2023/01/21 11:24:48;;;;;;;;;;;;;;;3.10;46.43;96970.22;4225833;28;5609;-59
2023/01/21 11:26:53;;;;;;;;;;;;;;;3.11;46.31;96957.97;4218036;28;5902;-59
2023/01/21 11:29:09;;;;;;;;;;;;;;;3.07;46.38;96962.66;4220621;28;5764;-60
2023/01/21 11:31:14;;;;;;;;;;;;;;;3.05;46.48;96968.97;4221976;28;5598;-60
2023/01/21 11:33:24;;;;;;;;;;;;;;;3.03;46.45;96955.25;4223442;28;5768;-60
2023/01/21 11:35:27;;;;;;;;;;;;;;;3.04;46.49;96969.94;4222346;28;5422;-60
2023/01/21 11:37:31;;;;;;;;;;;;;;;3.00;46.49;96940.69;4222469;28;6945;-62
2023/01/21 11:39:36;;;;;;;;;;;;;;;2.99;46.50;96957.31;4221238;28;5591;-61
2023/01/21 11:41:39;;;;;;;;;;;;;;;2.97;46.61;96956.66;4219732;28;5803;-62
2023/01/21 11:43:44;;;;;;;;;;;;;;;2.96;46.56;96941.94;4219441;27;6832;-62
2023/01/21 11:45:50;;;;;;;;;;;;;;;2.87;46.65;96941.00;4226174;28;5763;-63
2023/01/21 11:47:54;;;;;;;;;;;;;;;2.87;46.71;96950.63;4227332;28;6429;-60
2023/01/21 11:50:09;;;;;;;;;;;;;;;2.85;46.69;96953.38;4219183;28;5703;-59
2023/01/21 11:52:20;;;;;;;;;;;;;;;2.89;46.74;96941.69;4223801;28;5685;-59
2023/01/21 11:54:24;;;;;;;;;;;;;;;2.91;46.81;96931.91;4222245;28;5605;-60
2023/01/21 11:56:26;;;;;;;;;;;;;;;2.98;46.71;96936.56;4217516;28;5720;-59
2023/01/21 11:58:31;;;;;;;;;;;;;;;2.94;46.78;96930.78;4201272;28;5727;-61
2023/01/21 12:00:36;;;;;;;;;;;;;;;2.91;46.86;96933.69;4228492;28;5594;-64
2023/01/21 12:02:43;;;;;;;;;;;;;;;2.92;46.94;96933.56;4204803;28;5615;-60
2023/01/21 12:04:49;;;;;;;;;;;;;;;3.00;46.87;96937.25;4221757;28;7173;-60
2023/01/21 12:06:56;;;;;;;;;;;;;;;3.04;46.90;96909.88;4222522;28;5756;-67
2023/01/21 12:09:03;;;;;;;;;;;;;;;3.10;46.85;96920.59;4224005;28;5779;-61
2023/01/21 12:11:07;;;;;;;;;;;;;;;3.15;46.81;96917.53;4219948;28;5756;-60
2023/01/21 12:13:35;;;;;;;;;;;;;;;3.13;46.86;96922.91;4228305;28;5756;-60
2023/01/21 12:16:02;;;;;;;;;;;;;;;3.13;46.89;96909.03;4215597;28;5780;-60
2023/01/21 12:18:16;;;;;;;;;;;;;;;3.10;46.90;96896.25;4222229;28;5617;-60
2023/01/21 12:20:30;;;;;;;;;;;;;;;3.07;47.06;96904.38;4220910;28;5723;-59
2023/01/21 12:22:56;;;;;;;;;;;;;;;3.16;47.08;96911.34;4232475;28;5598;-60
2023/01/21 12:25:13;;;;;;;;;;;;;;;3.17;47.06;96905.13;4226277;28;5815;-61
2023/01/21 12:27:24;;;;;;;;;;;;;;;3.24;47.07;96893.16;4225436;27;5723;-60
2023/01/21 12:29:40;;;;;;;;;;;;;;;3.22;47.03;96908.16;4226318;28;5961;-58
2023/01/21 12:31:48;;;;;;;;;;;;;;;3.19;47.06;96895.38;4225305;28;5696;-58
2023/01/21 12:33:59;;;;;;;;;;;;;;;3.18;47.13;96897.19;4225242;28;5770;-58
2023/01/21 12:36:07;;;;;;;;;;;;;;;3.24;47.19;96898.38;4222797;28;5765;-58
2023/01/21 12:38:16;;;;;;;;;;;;;;;3.34;47.09;96903.56;4226682;28;5814;-59
2023/01/21 12:40:24;;;;;;;;;;;;;;;3.29;47.18;96887.50;4223612;28;5654;-59
2023/01/21 12:42:33;;;;;;;;;;;;;;;3.28;47.16;96899.72;4224613;28;5574;-60
2023/01/21 12:44:42;;;;;;;;;;;;;;;3.29;47.14;96895.34;4224914;28;5665;-60
2023/01/21 12:46:50;;;;;;;;;;;;;;;3.31;47.31;96906.47;4224580;28;5856;-60
2023/01/21 12:48:59;;;;;;;;;;;;;;;3.33;47.33;96905.34;4227189;28;5720;-58
2023/01/21 12:51:08;;;;;;;;;;;;;;;3.29;47.27;96905.81;4223342;28;5602;-59
2023/01/21 12:53:19;;;;;;;;;;;;;;;3.24;47.33;96919.28;4229970;28;5688;-57
2023/01/21 12:55:28;;;;;;;;;;;;;;;3.22;47.51;96923.84;4222137;28;5594;-60
2023/01/21 12:57:37;;;;;;;;;;;;;;;3.22;47.45;96913.38;4224836;28;6533;-60
2023/01/21 12:59:46;;;;;;;;;;;;;;;3.26;47.59;96912.13;4217641;28;5953;-60
2023/01/21 13:01:56;;;;;;;;;;;;;;;3.32;47.56;96902.88;4225232;28;5688;-59
2023/01/21 13:04:06;;;;;;;;;;;;;;;3.36;47.46;96906.84;4220261;28;6300;-60
2023/01/21 13:06:15;;;;;;;;;;;;;;;3.35;47.44;96908.63;4227497;28;5776;-59
2023/01/21 13:08:31;;;;;;;;;;;;;;;3.34;47.36;96904.38;4231889;27;5606;-59
2023/01/21 13:10:37;;;;;;;;;;;;;;;3.42;47.65;96924.56;4223862;27;6292;-60
2023/01/21 13:12:42;;;;;;;;;;;;;;;3.43;47.38;96911.34;4230121;27;5967;-59
2023/01/21 13:14:47;;;;;;;;;;;;;;;3.47;47.36;96912.69;4223329;28;5614;-58
2023/01/21 13:16:54;;;;;;;;;;;;;;;3.50;47.18;96924.66;4233843;28;5602;-58
2023/01/21 13:18:56;;;;;;;;;;;;;;;3.51;47.29;96926.28;4229520;28;6462;-59
2023/01/21 13:21:09;;;;;;;;;;;;;;;3.52;47.46;96921.91;4217871;28;5685;-60
2023/01/21 13:23:19;;;;;;;;;;;;;;;3.56;47.50;96931.09;4226200;28;5728;-59
2023/01/21 13:25:32;;;;;;;;;;;;;;;3.57;47.32;96922.28;4222364;28;5728;-59
2023/01/21 13:27:44;;;;;;;;;;;;;;;3.56;47.36;96915.41;4233588;28;5601;-59
2023/01/21 13:29:53;;;;;;;;;;;;;;;3.50;47.27;96937.72;4234062;28;5079;-59
2023/01/21 13:32:14;;;;;;;;;;;;;;;3.39;47.42;96935.28;4225554;28;7721;-60
2023/01/21 13:34:25;;;;;;;;;;;;;;;3.36;47.55;96923.34;4219922;28;5720;-61
2023/01/21 13:36:55;;;;;;;;;;;;;;;3.36;47.66;96931.19;4225367;28;5693;-61
2023/01/21 13:39:04;;;;;;;;;;;;;;;3.43;47.59;96931.44;4225664;28;5701;-60
2023/01/21 13:41:23;;;;;;;;;;;;;;;3.45;47.63;96924.28;4222481;28;5777;-61
2023/01/21 13:43:42;;;;;;;;;;;;;;;3.49;47.54;96920.38;4228018;28;5625;-61
2023/01/21 13:45:58;;;;;;;;;;;;;;;3.55;47.62;96929.47;4233489;28;5795;-61
2023/01/21 13:48:22;;;;;;;;;;;;;;;3.61;47.57;96927.06;4234371;28;6286;-60
2023/01/21 13:50:38;;;;;;;;;;;;;;;3.70;47.42;96939.25;4234350;28;5628;-61
2023/01/21 13:52:55;;;;;;;;;;;;;;;3.65;47.47;96935.47;4216627;28;5625;-62
2023/01/21 13:55:15;;;;;;;;;;;;;;;3.64;47.35;96931.19;4230040;28;5681;-61
2023/01/21 13:57:30;;;;;;;;;;;;;;;3.56;47.45;96937.16;4219849;28;5703;-60
2023/01/21 13:59:39;;;;;;;;;;;;;;;3.58;47.51;96929.97;4217070;28;5727;-60
2023/01/21 14:01:45;;;;;;;;;;;;;;;3.63;47.57;96934.78;4226106;28;5700;-60
2023/01/21 14:03:55;;;;;;;;;;;;;;;3.55;47.51;96942.53;4232560;28;5763;-60
2023/01/21 14:06:04;;;;;;;;;;;;;;;3.57;47.54;96937.97;4208638;28;5722;-59
2023/01/21 14:08:13;;;;;;;;;;;;;;;3.52;47.44;96959.34;4219759;28;5625;-60
2023/01/21 14:10:24;;;;;;;;;;;;;;;3.52;47.46;96934.97;4224540;28;5608;-59
2023/01/21 14:12:50;;;;;;;;;;;;;;;3.54;47.54;96943.50;4225255;28;5613;-60
2023/01/21 14:15:31;;;;;;;;;;;;;;;3.56;47.60;96946.78;4221824;28;5111;-61
2023/01/21 14:18:02;;;;;;;;;;;;;;;3.52;47.47;96948.06;4232985;28;5693;-60
2023/01/21 14:20:29;;;;;;;;;;;;;;;3.45;47.73;96942.56;4221635;27;5608;-58
2023/01/21 14:22:46;;;;;;;;;;;;;;;3.49;47.69;96957.81;4225877;27;5784;-60
2023/01/21 14:25:05;;;;;;;;;;;;;;;3.60;47.50;96953.34;4221468;27;5756;-58
2023/01/21 14:27:18;;;;;;;;;;;;;;;3.62;47.48;96957.47;4230309;27;5807;-59
2023/01/21 14:29:33;;;;;;;;;;;;;;;3.59;47.61;96968.22;4232080;28;5716;-61
2023/01/21 14:31:40;;;;;;;;;;;;;;;3.58;47.57;96956.13;4230069;27;5746;-60
2023/01/21 14:33:49;;;;;;;;;;;;;;;3.56;47.60;96962.47;4222233;27;5720;-60
2023/01/21 14:36:00;;;;;;;;;;;;;;;3.51;47.63;96970.72;4230692;27;5880;-60
2023/01/21 14:38:12;;;;;;;;;;;;;;;3.48;47.69;96961.38;4231290;27;5650;-60
2023/01/21 14:40:23;;;;;;;;;;;;;;;3.41;47.68;96970.78;4232893;28;5072;-60
2023/01/21 14:42:40;;;;;;;;;;;;;;;3.43;47.85;96968.84;4227684;28;5662;-60
2023/01/21 14:44:44;;;;;;;;;;;;;;;3.48;47.80;96976.25;4231189;27;5614;-60
2023/01/21 14:47:11;;;;;;;;;;;;;;;3.47;47.80;96979.84;4228955;27;6473;-60
2023/01/21 14:49:41;;;;;;;;;;;;;;;3.55;47.79;96981.75;4231395;27;5646;-60
2023/01/21 14:51:47;;;;;;;;;;;;;;;3.52;47.80;96982.03;4225425;28;6470;-60
2023/01/21 14:53:52;;;;;;;;;;;;;;;3.48;47.79;96987.53;4227566;28;5589;-60
2023/01/21 14:56:09;;;;;;;;;;;;;;;3.49;47.90;96999.63;4224533;27;5809;-60
2023/01/21 14:58:22;;;;;;;;;;;;;;;3.48;47.55;96986.72;4223170;27;5607;-60
2023/01/21 15:00:29;;;;;;;;;;;;;;;3.44;47.86;96996.63;4224023;27;5736;-60
2023/01/21 15:02:35;;;;;;;;;;;;;;;3.48;47.85;97002.38;4225036;27;5661;-61
2023/01/21 15:04:38;;;;;;;;;;;;;;;3.49;47.77;97002.25;4222049;27;5851;-60
2023/01/21 15:06:42;;;;;;;;;;;;;;;3.46;47.89;96994.69;4224056;27;5879;-60
2023/01/21 15:08:50;;;;;;;;;;;;;;;3.44;47.89;97001.88;4221289;27;5605;-60
2023/01/21 15:10:55;;;;;;;;;;;;;;;3.47;48.03;97006.78;4222563;28;5716;-60
2023/01/21 15:13:04;;;;;;;;;;;;;;;3.41;47.90;97004.78;4220692;28;5819;-60
2023/01/21 15:15:26;;;;;;;;;;;;;;;3.32;48.02;96989.94;4227127;27;5602;-60
2023/01/21 15:17:45;;;;;;;;;;;;;;;3.27;48.18;97013.03;4227379;27;5617;-60
2023/01/21 15:19:57;;;;;;;;;;;;;;;3.29;48.38;97018.97;4222656;27;5765;-60
2023/01/21 15:22:23;;;;;;;;;;;;;;;3.26;48.16;97021.84;4226188;27;5610;-60
2023/01/21 15:24:29;;;;;;;;;;;;;;;3.26;48.05;97008.78;4223802;27;5692;-60
2023/01/21 15:26:32;;;;;;;;;;;;;;;3.30;48.09;97010.16;4229622;27;5800;-60
2023/01/21 15:28:43;;;;;;;;;;;;;;;3.27;48.15;97020.88;4224069;27;6659;-60
2023/01/21 15:30:59;;;;;;;;;;;;;;;3.29;48.18;97028.59;4227139;27;5617;-63
2023/01/21 15:33:02;;;;;;;;;;;;;;;3.23;48.17;97032.59;4221571;27;6426;-63
2023/01/21 15:35:15;;;;;;;;;;;;;;;3.21;48.25;97037.97;4222892;28;5740;-63
2023/01/21 15:37:21;;;;;;;;;;;;;;;3.28;48.37;97040.00;4221202;27;5855;-63
2023/01/21 15:39:32;;;;;;;;;;;;;;;3.26;48.33;97045.38;4222190;27;5813;-63
2023/01/21 15:41:43;;;;;;;;;;;;;;;3.20;48.48;97045.94;4225126;27;5803;-63
2023/01/21 15:43:55;;;;;;;;;;;;;;;3.27;48.35;97051.41;4193666;28;5832;-64
2023/01/21 15:46:10;;;;;;;;;;;;;;;3.30;48.33;97059.81;4197487;28;5773;-64
2023/01/21 15:48:30;;;;;;;;;;;;;;;3.27;48.30;97067.91;4195174;28;6467;-64
2023/01/21 15:50:51;;;;;;;;;;;;;;;3.31;48.41;97066.69;4198258;28;5680;-64
2023/01/21 15:53:09;;;;;;;;;;;;;;;3.40;48.34;97065.84;4198346;28;5803;-64
2023/01/21 15:55:32;;;;;;;;;;;;;;;3.49;48.26;97072.81;4200441;28;5793;-64
2023/01/21 15:57:47;;;;;;;;;;;;;;;3.36;48.39;97056.63;4193395;28;5691;-64
2023/01/21 16:00:03;;;;;;;;;;;;;;;3.32;48.50;97076.19;4198152;28;5871;-64
2023/01/21 16:02:15;;;;;;;;;;;;;;;3.33;48.61;97082.22;4197877;28;5782;-64
2023/01/21 16:04:30;;;;;;;;;;;;;;;3.38;48.60;97078.22;4199469;28;5782;-64
2023/01/21 16:06:44;;;;;;;;;;;;;;;3.45;48.66;97091.56;4193286;28;5724;-63
2023/01/21 16:09:01;;;;;;;;;;;;;;;3.40;48.57;97078.91;4196836;28;6738;-64
2023/01/21 16:11:22;;;;;;;;;;;;;;;3.38;48.57;97074.78;4192468;28;5809;-64
2023/01/21 16:13:36;;;;;;;;;;;;;;;3.40;48.60;97083.31;4191092;28;5876;-65
2023/01/21 16:15:52;;;;;;;;;;;;;;;3.36;48.70;97084.53;4194236;28;5770;-64
2023/01/21 16:18:14;;;;;;;;;;;;;;;3.32;48.73;97080.59;4197998;28;6487;-64
2023/01/21 16:20:17;;;;;;;;;;;;;;;3.28;48.89;97085.25;4188274;28;5795;-64
2023/01/21 16:22:24;;;;;;;;;;;;;;;3.24;48.89;97083.88;4191386;28;6504;-64
2023/01/21 16:24:29;;;;;;;;;;;;;;;3.22;49.04;97091.88;4188969;28;5802;-64
2023/01/21 16:26:32;;;;;;;;;;;;;;;3.23;49.12;97087.47;4188337;28;5842;-64
2023/01/21 16:28:47;;;;;;;;;;;;;;;3.23;49.05;97092.69;4193643;28;5811;-64
2023/01/21 16:30:57;;;;;;;;;;;;;;;3.24;49.00;97086.50;4192847;28;6498;-66
2023/01/21 16:33:08;;;;;;;;;;;;;;;3.22;49.06;97098.88;4193375;28;5192;-69
2023/01/21 16:35:11;;;;;;;;;;;;;;;3.16;49.29;97099.44;4197936;28;7754;-71
2023/01/21 16:37:16;;;;;;;;;;;;;;;3.10;48.85;97097.38;4194589;28;5794;-69
2023/01/21 16:39:19;;;;;;;;;;;;;;;3.08;49.41;97094.09;4200970;28;5804;-74
2023/01/21 16:41:26;;;;;;;;;;;;;;;3.04;49.51;97098.75;4198274;28;5746;-76
2023/01/21 16:43:29;;;;;;;;;;;;;;;3.04;49.55;97095.31;4225758;27;5752;-75
2023/01/21 16:45:32;;;;;;;;;;;;;;;3.11;49.48;97088.59;4231884;27;5757;-76
2023/01/21 16:47:36;;;;;;;;;;;;;;;3.13;49.51;97102.31;4239804;27;5696;-70
2023/01/21 16:49:41;;;;;;;;;;;;;;;3.10;49.58;97093.00;4233205;27;5767;-72
2023/01/21 16:51:50;;;;;;;;;;;;;;;3.10;49.74;97106.06;4213710;28;5601;-71
2023/01/21 16:53:53;;;;;;;;;;;;;;;3.09;49.66;97100.97;4226786;27;5155;-70
2023/01/21 16:55:58;;;;;;;;;;;;;;;3.06;49.86;97111.66;4228357;27;5669;-64
2023/01/21 16:58:00;;;;;;;;;;;;;;;3.00;49.84;97117.47;4228599;27;5816;-66
2023/01/21 17:00:22;;;;;;;;;;;;;;;2.97;49.94;97112.53;4226151;27;5805;-66
2023/01/21 17:02:27;;;;;;;;;;;;;;;3.06;49.88;97106.44;4216374;27;5701;-65
2023/01/21 17:04:32;;;;;;;;;;;;;;;3.05;49.83;97110.03;4227815;27;5716;-68
2023/01/21 17:06:34;;;;;;;;;;;;;;;2.98;49.93;97108.94;4223169;27;5612;-65
2023/01/21 17:08:38;;;;;;;;;;;;;;;3.00;50.04;97114.84;4224781;27;5613;-67
2023/01/21 17:10:54;;;;;;;;;;;;;;;3.07;49.93;97108.13;4230596;27;5775;-73
2023/01/21 17:13:02;;;;;;;;;;;;;;;3.12;49.95;97113.75;4233283;27;5704;-72
2023/01/21 17:15:16;;;;;;;;;;;;;;;3.07;50.02;97119.41;4227388;27;5780;-70
2023/01/21 17:17:23;;;;;;;;;;;;;;;3.07;49.90;97113.34;4222279;27;5715;-72
2023/01/21 17:19:31;;;;;;;;;;;;;;;3.06;49.91;97114.28;4225381;27;5657;-68
2023/01/21 17:21:38;;;;;;;;;;;;;;;3.00;49.93;97117.47;4221927;27;5608;-67
2023/01/21 17:23:46;;;;;;;;;;;;;;;2.93;49.86;97125.84;4223107;27;5777;-69
2023/01/21 17:25:55;;;;;;;;;;;;;;;2.89;50.05;97119.25;4231589;28;5844;-68
2023/01/21 17:27:57;;;;;;;;;;;;;;;2.97;50.10;97128.19;4226643;27;5724;-68
2023/01/21 17:30:25;;;;;;;;;;;;;;;3.03;49.90;97132.84;4227920;27;5703;-66
2023/01/21 17:32:32;;;;;;;;;;;;;;;3.02;49.91;97133.81;4221439;27;5677;-69
2023/01/21 17:34:36;;;;;;;;;;;;;;;2.97;49.74;97118.56;4229484;28;5738;-69
2023/01/21 17:36:42;;;;;;;;;;;;;;;2.96;49.93;97127.38;4216685;27;5692;-73
2023/01/21 17:38:46;;;;;;;;;;;;;;;3.00;49.75;97133.13;4230656;27;5696;-68
2023/01/21 17:41:00;;;;;;;;;;;;;;;2.92;49.88;97132.03;4208296;28;5895;-78
2023/01/21 17:43:17;;;;;;;;;;;;;;;2.90;49.95;97156.63;4232171;27;5685;-66
2023/01/21 17:45:27;;;;;;;;;;;;;;;2.85;49.95;97130.94;4223349;27;5704;-67
2023/01/21 17:47:33;;;;;;;;;;;;;;;2.82;50.00;97141.63;4218170;27;5804;-69
2023/01/21 17:49:36;;;;;;;;;;;;;;;2.87;49.92;97134.22;4215407;27;5605;-67
2023/01/21 17:51:44;;;;;;;;;;;;;;;2.78;49.81;97135.03;4223554;27;5593;-66
2023/01/21 17:53:54;;;;;;;;;;;;;;;2.71;49.82;97144.38;4220356;27;5900;-68
2023/01/21 17:56:00;;;;;;;;;;;;;;;2.71;49.95;97146.97;4218900;27;5625;-65
2023/01/21 17:58:04;;;;;;;;;;;;;;;2.69;49.88;97138.47;4221852;27;5806;-63
2023/01/21 18:00:25;;;;;;;;;;;;;;;2.57;49.90;97147.38;4228968;27;5808;-66
2023/01/21 18:02:28;;;;;;;;;;;;;;;2.56;49.85;97150.94;4221241;27;5801;-64
2023/01/21 18:04:31;;;;;;;;;;;;;;;2.48;49.86;97162.06;4227577;27;5821;-66
2023/01/21 18:06:34;;;;;;;;;;;;;;;2.43;49.92;97160.81;4219345;27;5736;-65
2023/01/21 18:08:38;;;;;;;;;;;;;;;2.45;49.85;97164.13;4229113;27;5598;-65
2023/01/21 18:10:42;;;;;;;;;;;;;;;2.47;49.82;97159.59;4232895;28;5605;-66
2023/01/21 18:12:44;;;;;;;;;;;;;;;2.54;49.78;97164.13;4230923;27;6413;-65
2023/01/21 18:14:47;;;;;;;;;;;;;;;2.51;49.70;97164.41;4226731;27;5797;-64
2023/01/21 18:16:52;;;;;;;;;;;;;;;2.54;49.75;97158.09;4227270;27;5829;-69
2023/01/21 18:18:55;;;;;;;;;;;;;;;2.61;49.76;97164.44;4230815;27;6476;-71
2023/01/21 18:20:58;;;;;;;;;;;;;;;2.60;49.81;97157.53;4226217;27;5815;-71
2023/01/21 18:23:01;;;;;;;;;;;;;;;2.60;49.82;97163.63;4223784;27;5636;-69
2023/01/21 18:25:07;;;;;;;;;;;;;;;2.59;49.78;97172.38;4229675;27;5921;-70
2023/01/21 18:27:11;;;;;;;;;;;;;;;2.58;49.84;97162.06;4239866;27;5609;-70
2023/01/21 18:29:16;;;;;;;;;;;;;;;2.61;49.51;97159.22;4237544;27;5700;-71
2023/01/21 18:31:19;;;;;;;;;;;;;;;2.52;49.76;97173.06;4235153;27;5807;-71
2023/01/21 18:33:22;;;;;;;;;;;;;;;2.42;49.89;97182.66;4234290;27;5745;-70
2023/01/21 18:35:27;;;;;;;;;;;;;;;2.34;50.04;97162.44;4235295;27;5634;-70
2023/01/21 18:37:30;;;;;;;;;;;;;;;2.38;49.92;97173.41;4235546;27;5801;-71
2023/01/21 18:39:33;;;;;;;;;;;;;;;2.42;49.96;97173.03;4238032;27;5611;-71
2023/01/21 18:41:37;;;;;;;;;;;;;;;2.49;49.93;97166.34;4236283;27;5115;-69
2023/01/21 18:43:42;;;;;;;;;;;;;;;2.49;49.88;97168.09;4231537;27;5614;-67
2023/01/21 18:45:45;;;;;;;;;;;;;;;2.48;49.83;97154.22;4227778;27;5900;-68
2023/01/21 18:47:49;;;;;;;;;;;;;;;2.51;49.83;97167.03;4227760;27;5708;-66
2023/01/21 18:49:52;;;;;;;;;;;;;;;2.55;49.84;97178.84;4229437;27;5744;-66
2023/01/21 18:51:54;;;;;;;;;;;;;;;2.54;49.80;97160.72;4223411;27;5823;-65
2023/01/21 18:53:57;;;;;;;;;;;;;;;2.52;49.81;97173.06;4221027;27;5684;-67
2023/01/21 18:56:00;;;;;;;;;;;;;;;2.47;49.85;97168.22;4229604;27;6323;-64
2023/01/21 18:58:11;;;;;;;;;;;;;;;2.55;50.02;97170.19;4221509;27;5606;-65
2023/01/21 19:00:25;;;;;;;;;;;;;;;2.59;49.88;97155.91;4225671;27;5583;-65
2023/01/21 19:02:28;;;;;;;;;;;;;;;2.59;49.78;97166.34;4224767;27;5713;-65
2023/01/21 19:04:31;;;;;;;;;;;;;;;2.56;49.85;97166.63;4226665;27;5792;-65
2023/01/21 19:06:34;;;;;;;;;;;;;;;2.50;50.01;97173.22;4223010;27;5077;-68
2023/01/21 19:08:37;;;;;;;;;;;;;;;2.53;49.96;97161.66;4227142;27;5721;-66
2023/01/21 19:10:40;;;;;;;;;;;;;;;2.45;49.90;97167.53;4224403;27;5713;-66